This is the latest recevied weather packets stored in our database for station/object KC9YTT-13. If no packets are shown the sender has not sent any weather packets the latest 10 day(s).
| Time | Temp. | Humidity | Pressure | Rain* | Wind** | Luminosity | Snow |
|---|---|---|---|---|---|---|---|
| 1777768713 | 17.78° C | 28% | 1014.9 hPa | 0 mm | - | - | - |
| 1777767511 | 18.33° C | 25% | 1014.9 hPa | 0 mm | - | - | - |
| 1777766909 | 18.89° C | 23% | 1014.9 hPa | 0 mm | - | - | - |
| 1777766308 | 19.44° C | 22% | 1015 hPa | 0 mm | - | - | - |
| 1777763300 | 18.89° C | 23% | 1015.2 hPa | 0 mm | - | - | - |
| 1777762097 | 20° C | 18% | 1015.4 hPa | 0 mm | - | - | - |
| 1777761496 | 19.44° C | 20% | 1015.4 hPa | 0 mm | - | - | - |
| 1777760293 | 21.11° C | 21% | 1015.3 hPa | 0 mm | - | - | - |
| 1777759090 | 17.22° C | 26% | 1015.4 hPa | 0 mm | - | - | - |
| 1777757887 | 19.44° C | 19% | 1015.6 hPa | 0 mm | - | - | - |
| 1777757286 | 19.44° C | 22% | 1015.5 hPa | 0 mm | - | - | - |
| 1777754279 | 20.56° C | 20% | 1016 hPa | 0 mm | - | - | - |
| 1777750068 | 18.33° C | 27% | 1016.8 hPa | 0 mm | - | - | - |
| 1777747663 | 17.78° C | 26% | 1017.1 hPa | 0 mm | - | - | - |
| 1777746460 | 17.78° C | 29% | 1017.2 hPa | 0 mm | - | - | - |
| 1777745257 | 16.67° C | 27% | 1017.3 hPa | 0 mm | - | - | - |
| 1777744655 | 18.89° C | 28% | 1017.4 hPa | 0 mm | - | - | - |
| 1777741648 | 15° C | 30% | 1017.8 hPa | 0 mm | - | - | - |
| 1777741047 | 14.44° C | 34% | 1017.8 hPa | 0 mm | - | - | - |
| 1777738039 | 17.22° C | 35% | 1017.9 hPa | 0 mm | - | - | - |
| 1777737438 | 15° C | 33% | 1018 hPa | 0 mm | - | - | - |
| 1777729017 | 10° C | 60% | 1018 hPa | 0 mm | - | - | - |
| 1777727815 | 8.89° C | 64% | 1018 hPa | 0 mm | - | - | - |
| 1777724806 | 5.56° C | 76% | 1017.8 hPa | 0 mm | - | - | - |
| 1777724205 | 5.56° C | 78% | 1017.7 hPa | 0 mm | - | - | - |
* Rain latest hour (hover to see other rain measurements)
** Current wind speed in m/s (hover to see current wind gust speed)